sensor_id;sensor_type;location;lat;lon;timestamp;temperature;humidity
74153;DHT22;62505;46.070;14.492;2024-01-30T00:00:28;21.80;55.50
74153;DHT22;62505;46.070;14.492;2024-01-30T00:02:55;21.80;55.40
74153;DHT22;62505;46.070;14.492;2024-01-30T00:05:22;21.80;55.50
74153;DHT22;62505;46.070;14.492;2024-01-30T00:07:51;21.80;55.50
74153;DHT22;62505;46.070;14.492;2024-01-30T00:10:18;21.80;55.50
74153;DHT22;62505;46.070;14.492;2024-01-30T00:12:46;21.80;55.50
74153;DHT22;62505;46.070;14.492;2024-01-30T00:15:13;21.80;55.40
74153;DHT22;62505;46.070;14.492;2024-01-30T00:17:40;21.80;55.40
74153;DHT22;62505;46.070;14.492;2024-01-30T00:20:08;21.80;55.50
74153;DHT22;62505;46.070;14.492;2024-01-30T00:22:35;21.80;55.40
74153;DHT22;62505;46.070;14.492;2024-01-30T00:25:04;21.80;55.50
74153;DHT22;62505;46.070;14.492;2024-01-30T00:27:31;21.80;55.40
74153;DHT22;62505;46.070;14.492;2024-01-30T00:29:58;21.80;55.40
74153;DHT22;62505;46.070;14.492;2024-01-30T00:32:25;21.80;56.10
74153;DHT22;62505;46.070;14.492;2024-01-30T00:34:52;21.80;55.40
74153;DHT22;62505;46.070;14.492;2024-01-30T00:37:18;21.80;55.40
74153;DHT22;62505;46.070;14.492;2024-01-30T00:39:45;21.80;55.50
74153;DHT22;62505;46.070;14.492;2024-01-30T00:42:14;21.80;55.50
74153;DHT22;62505;46.070;14.492;2024-01-30T00:44:41;21.80;55.40
74153;DHT22;62505;46.070;14.492;2024-01-30T00:47:08;21.80;55.40
74153;DHT22;62505;46.070;14.492;2024-01-30T00:49:35;21.80;55.40
74153;DHT22;62505;46.070;14.492;2024-01-30T00:52:02;21.80;55.40
74153;DHT22;62505;46.070;14.492;2024-01-30T00:54:29;21.80;55.40
74153;DHT22;62505;46.070;14.492;2024-01-30T00:56:56;21.80;55.40
74153;DHT22;62505;46.070;14.492;2024-01-30T00:59:25;21.80;55.40
74153;DHT22;62505;46.070;14.492;2024-01-30T01:01:51;21.80;55.40
74153;DHT22;62505;46.070;14.492;2024-01-30T01:04:19;21.80;55.30
74153;DHT22;62505;46.070;14.492;2024-01-30T01:06:46;21.80;55.40
74153;DHT22;62505;46.070;14.492;2024-01-30T01:09:14;21.80;55.40
74153;DHT22;62505;46.070;14.492;2024-01-30T01:11:40;21.80;55.30
74153;DHT22;62505;46.070;14.492;2024-01-30T01:14:07;21.80;56.00
74153;DHT22;62505;46.070;14.492;2024-01-30T01:16:36;21.80;55.40
74153;DHT22;62505;46.070;14.492;2024-01-30T01:19:03;21.80;55.40
74153;DHT22;62505;46.070;14.492;2024-01-30T01:21:30;21.80;55.30
74153;DHT22;62505;46.070;14.492;2024-01-30T01:23:57;21.80;55.40
74153;DHT22;62505;46.070;14.492;2024-01-30T01:26:24;21.80;55.40
74153;DHT22;62505;46.070;14.492;2024-01-30T01:28:51;21.80;55.30
74153;DHT22;62505;46.070;14.492;2024-01-30T01:31:18;21.80;55.40
74153;DHT22;62505;46.070;14.492;2024-01-30T01:33:46;21.80;55.40
74153;DHT22;62505;46.070;14.492;2024-01-30T01:36:13;21.80;55.30
74153;DHT22;62505;46.070;14.492;2024-01-30T01:38:40;21.80;55.30
74153;DHT22;62505;46.070;14.492;2024-01-30T01:41:07;21.80;55.40
74153;DHT22;62505;46.070;14.492;2024-01-30T01:43:34;21.80;55.30
74153;DHT22;62505;46.070;14.492;2024-01-30T01:46:02;21.80;55.30
74153;DHT22;62505;46.070;14.492;2024-01-30T01:48:29;21.80;55.30
74153;DHT22;62505;46.070;14.492;2024-01-30T01:50:58;21.80;55.40
74153;DHT22;62505;46.070;14.492;2024-01-30T01:53:26;21.80;55.40
74153;DHT22;62505;46.070;14.492;2024-01-30T01:55:54;21.80;55.30
74153;DHT22;62505;46.070;14.492;2024-01-30T01:58:21;21.80;55.30
74153;DHT22;62505;46.070;14.492;2024-01-30T02:00:50;21.80;55.40
74153;DHT22;62505;46.070;14.492;2024-01-30T02:03:18;21.80;55.30
74153;DHT22;62505;46.070;14.492;2024-01-30T02:05:47;21.80;55.30
74153;DHT22;62505;46.070;14.492;2024-01-30T02:08:15;21.80;55.30
74153;DHT22;62505;46.070;14.492;2024-01-30T02:10:42;21.80;55.30
74153;DHT22;62505;46.070;14.492;2024-01-30T02:13:09;21.80;55.30
74153;DHT22;62505;46.070;14.492;2024-01-30T02:15:36;21.80;55.30
74153;DHT22;62505;46.070;14.492;2024-01-30T02:18:04;21.80;55.30
74153;DHT22;62505;46.070;14.492;2024-01-30T02:20:31;21.80;55.30
74153;DHT22;62505;46.070;14.492;2024-01-30T02:23:03;21.80;55.30
74153;DHT22;62505;46.070;14.492;2024-01-30T02:25:31;21.80;55.30
74153;DHT22;62505;46.070;14.492;2024-01-30T02:27:58;21.80;55.30
74153;DHT22;62505;46.070;14.492;2024-01-30T02:30:25;21.80;55.30
74153;DHT22;62505;46.070;14.492;2024-01-30T02:32:52;21.80;55.30
74153;DHT22;62505;46.070;14.492;2024-01-30T02:35:19;21.80;55.30
74153;DHT22;62505;46.070;14.492;2024-01-30T02:37:46;21.80;55.30
74153;DHT22;62505;46.070;14.492;2024-01-30T02:40:15;21.80;55.30
74153;DHT22;62505;46.070;14.492;2024-01-30T02:42:42;21.80;55.30
74153;DHT22;62505;46.070;14.492;2024-01-30T02:45:10;21.80;55.30
74153;DHT22;62505;46.070;14.492;2024-01-30T02:47:38;21.80;55.30
74153;DHT22;62505;46.070;14.492;2024-01-30T02:50:06;21.80;55.30
74153;DHT22;62505;46.070;14.492;2024-01-30T02:52:33;21.80;55.30
74153;DHT22;62505;46.070;14.492;2024-01-30T02:55:00;21.80;55.30
74153;DHT22;62505;46.070;14.492;2024-01-30T02:57:29;21.80;55.20
74153;DHT22;62505;46.070;14.492;2024-01-30T02:59:56;21.80;55.20
74153;DHT22;62505;46.070;14.492;2024-01-30T03:02:23;21.80;55.30
74153;DHT22;62505;46.070;14.492;2024-01-30T03:04:50;21.80;55.20
74153;DHT22;62505;46.070;14.492;2024-01-30T03:07:17;21.80;55.20
74153;DHT22;62505;46.070;14.492;2024-01-30T03:09:44;21.80;55.20
74153;DHT22;62505;46.070;14.492;2024-01-30T03:12:11;21.80;55.20
74153;DHT22;62505;46.070;14.492;2024-01-30T03:14:39;21.80;55.20
74153;DHT22;62505;46.070;14.492;2024-01-30T03:17:07;21.80;55.20
74153;DHT22;62505;46.070;14.492;2024-01-30T03:19:34;21.80;55.20
74153;DHT22;62505;46.070;14.492;2024-01-30T03:22:01;21.80;55.20
74153;DHT22;62505;46.070;14.492;2024-01-30T03:24:28;21.80;55.20
74153;DHT22;62505;46.070;14.492;2024-01-30T03:26:55;21.80;55.20
74153;DHT22;62505;46.070;14.492;2024-01-30T03:29:21;21.80;55.20
74153;DHT22;62505;46.070;14.492;2024-01-30T03:31:50;21.80;55.20
74153;DHT22;62505;46.070;14.492;2024-01-30T03:34:17;21.80;55.20
74153;DHT22;62505;46.070;14.492;2024-01-30T03:36:44;21.80;55.20
74153;DHT22;62505;46.070;14.492;2024-01-30T03:39:11;21.80;55.10
74153;DHT22;62505;46.070;14.492;2024-01-30T03:41:38;21.70;55.10
74153;DHT22;62505;46.070;14.492;2024-01-30T03:44:06;21.80;55.20
74153;DHT22;62505;46.070;14.492;2024-01-30T03:46:33;21.80;55.20
74153;DHT22;62505;46.070;14.492;2024-01-30T03:49:01;21.80;55.10
74153;DHT22;62505;46.070;14.492;2024-01-30T03:51:28;21.80;55.10
74153;DHT22;62505;46.070;14.492;2024-01-30T03:53:55;21.80;55.20
74153;DHT22;62505;46.070;14.492;2024-01-30T03:56:22;21.80;55.10
74153;DHT22;62505;46.070;14.492;2024-01-30T03:58:51;21.80;55.10
74153;DHT22;62505;46.070;14.492;2024-01-30T04:01:18;21.80;55.10
74153;DHT22;62505;46.070;14.492;2024-01-30T04:03:45;21.80;55.10
74153;DHT22;62505;46.070;14.492;2024-01-30T04:06:13;21.80;55.10
74153;DHT22;62505;46.070;14.492;2024-01-30T04:08:40;21.80;55.10
74153;DHT22;62505;46.070;14.492;2024-01-30T04:11:07;21.80;55.10
74153;DHT22;62505;46.070;14.492;2024-01-30T04:13:34;21.80;55.10
74153;DHT22;62505;46.070;14.492;2024-01-30T04:16:02;21.80;55.10
74153;DHT22;62505;46.070;14.492;2024-01-30T04:18:29;21.80;55.10
74153;DHT22;62505;46.070;14.492;2024-01-30T04:20:56;21.70;55.00
74153;DHT22;62505;46.070;14.492;2024-01-30T04:23:24;21.80;55.10
74153;DHT22;62505;46.070;14.492;2024-01-30T04:25:51;21.80;55.10
74153;DHT22;62505;46.070;14.492;2024-01-30T04:28:18;21.80;55.10
74153;DHT22;62505;46.070;14.492;2024-01-30T04:30:45;21.80;55.10
74153;DHT22;62505;46.070;14.492;2024-01-30T04:33:12;21.70;55.00
74153;DHT22;62505;46.070;14.492;2024-01-30T04:35:39;21.70;55.00
74153;DHT22;62505;46.070;14.492;2024-01-30T04:38:06;21.80;55.10
74153;DHT22;62505;46.070;14.492;2024-01-30T04:40:34;21.80;55.10
74153;DHT22;62505;46.070;14.492;2024-01-30T04:43:01;21.80;55.00
74153;DHT22;62505;46.070;14.492;2024-01-30T04:45:28;21.80;55.10
74153;DHT22;62505;46.070;14.492;2024-01-30T04:47:55;21.80;55.10
74153;DHT22;62505;46.070;14.492;2024-01-30T04:50:23;21.80;55.10
74153;DHT22;62505;46.070;14.492;2024-01-30T04:52:49;21.80;55.00
74153;DHT22;62505;46.070;14.492;2024-01-30T04:55:16;21.80;55.00
74153;DHT22;62505;46.070;14.492;2024-01-30T04:57:45;21.80;55.00
74153;DHT22;62505;46.070;14.492;2024-01-30T05:00:12;21.80;55.00
74153;DHT22;62505;46.070;14.492;2024-01-30T05:02:39;21.70;55.00
74153;DHT22;62505;46.070;14.492;2024-01-30T05:05:06;21.70;55.00
74153;DHT22;62505;46.070;14.492;2024-01-30T05:07:34;21.80;55.00
74153;DHT22;62505;46.070;14.492;2024-01-30T05:10:01;21.70;55.00
74153;DHT22;62505;46.070;14.492;2024-01-30T05:12:28;21.70;55.00
74153;DHT22;62505;46.070;14.492;2024-01-30T05:14:57;21.80;55.00
74153;DHT22;62505;46.070;14.492;2024-01-30T05:17:24;21.80;55.00
74153;DHT22;62505;46.070;14.492;2024-01-30T05:19:51;21.70;55.00
74153;DHT22;62505;46.070;14.492;2024-01-30T05:22:18;21.80;55.00
74153;DHT22;62505;46.070;14.492;2024-01-30T05:24:45;21.80;55.00
74153;DHT22;62505;46.070;14.492;2024-01-30T05:27:12;21.70;55.00
74153;DHT22;62505;46.070;14.492;2024-01-30T05:29:39;21.80;55.00
74153;DHT22;62505;46.070;14.492;2024-01-30T05:32:07;21.80;55.00
74153;DHT22;62505;46.070;14.492;2024-01-30T05:34:35;21.80;55.00
74153;DHT22;62505;46.070;14.492;2024-01-30T05:37:03;21.70;55.00
74153;DHT22;62505;46.070;14.492;2024-01-30T05:39:30;21.70;55.00
74153;DHT22;62505;46.070;14.492;2024-01-30T05:41:58;21.80;55.00
74153;DHT22;62505;46.070;14.492;2024-01-30T05:44:25;21.70;55.00
74153;DHT22;62505;46.070;14.492;2024-01-30T05:46:52;21.80;55.00
74153;DHT22;62505;46.070;14.492;2024-01-30T05:49:21;21.70;54.90
74153;DHT22;62505;46.070;14.492;2024-01-30T05:51:48;21.80;55.00
74153;DHT22;62505;46.070;14.492;2024-01-30T05:54:15;21.70;55.60
74153;DHT22;62505;46.070;14.492;2024-01-30T05:56:42;21.80;55.00
74153;DHT22;62505;46.070;14.492;2024-01-30T05:59:09;21.80;55.00
74153;DHT22;62505;46.070;14.492;2024-01-30T06:01:36;21.80;55.00
74153;DHT22;62505;46.070;14.492;2024-01-30T06:04:03;21.70;54.90
74153;DHT22;62505;46.070;14.492;2024-01-30T06:06:32;21.70;55.00
74153;DHT22;62505;46.070;14.492;2024-01-30T06:08:59;21.70;55.00
74153;DHT22;62505;46.070;14.492;2024-01-30T06:11:26;21.70;54.90
74153;DHT22;62505;46.070;14.492;2024-01-30T06:13:53;21.80;54.90
74153;DHT22;62505;46.070;14.492;2024-01-30T06:16:19;21.80;55.00
74153;DHT22;62505;46.070;14.492;2024-01-30T06:18:47;21.80;55.00
74153;DHT22;62505;46.070;14.492;2024-01-30T06:24:37;21.80;55.00
74153;DHT22;62505;46.070;14.492;2024-01-30T06:27:04;21.80;54.90
74153;DHT22;62505;46.070;14.492;2024-01-30T06:29:31;21.70;54.90
74153;DHT22;62505;46.070;14.492;2024-01-30T06:31:59;21.80;55.00
74153;DHT22;62505;46.070;14.492;2024-01-30T06:34:26;21.80;54.90
74153;DHT22;62505;46.070;14.492;2024-01-30T06:36:53;21.70;54.90
74153;DHT22;62505;46.070;14.492;2024-01-30T06:39:20;21.70;55.00
74153;DHT22;62505;46.070;14.492;2024-01-30T06:41:48;21.80;54.90
74153;DHT22;62505;46.070;14.492;2024-01-30T06:44:15;21.80;55.00
74153;DHT22;62505;46.070;14.492;2024-01-30T06:46:42;21.80;54.90
74153;DHT22;62505;46.070;14.492;2024-01-30T06:49:09;21.80;55.00
74153;DHT22;62505;46.070;14.492;2024-01-30T06:51:36;21.80;54.90
74153;DHT22;62505;46.070;14.492;2024-01-30T06:54:04;21.80;54.90
74153;DHT22;62505;46.070;14.492;2024-01-30T06:56:31;21.80;54.90
74153;DHT22;62505;46.070;14.492;2024-01-30T06:58:59;21.80;54.90
74153;DHT22;62505;46.070;14.492;2024-01-30T07:01:28;21.80;55.00
74153;DHT22;62505;46.070;14.492;2024-01-30T07:03:55;21.80;55.00
74153;DHT22;62505;46.070;14.492;2024-01-30T07:06:22;21.80;55.00
74153;DHT22;62505;46.070;14.492;2024-01-30T07:08:50;21.70;54.90
74153;DHT22;62505;46.070;14.492;2024-01-30T07:11:18;21.80;54.90
74153;DHT22;62505;46.070;14.492;2024-01-30T07:13:45;21.70;54.90
74153;DHT22;62505;46.070;14.492;2024-01-30T07:16:15;21.80;55.50
74153;DHT22;62505;46.070;14.492;2024-01-30T07:18:42;21.80;54.90
74153;DHT22;62505;46.070;14.492;2024-01-30T07:21:10;21.70;54.80
74153;DHT22;62505;46.070;14.492;2024-01-30T07:23:37;21.70;54.90
74153;DHT22;62505;46.070;14.492;2024-01-30T07:26:04;21.80;54.90
74153;DHT22;62505;46.070;14.492;2024-01-30T07:28:32;21.70;54.90
74153;DHT22;62505;46.070;14.492;2024-01-30T07:30:59;21.70;54.90
74153;DHT22;62505;46.070;14.492;2024-01-30T07:33:27;21.80;54.90
74153;DHT22;62505;46.070;14.492;2024-01-30T07:35:54;21.70;54.90
74153;DHT22;62505;46.070;14.492;2024-01-30T07:38:21;21.80;54.90
74153;DHT22;62505;46.070;14.492;2024-01-30T07:40:48;21.70;54.80
74153;DHT22;62505;46.070;14.492;2024-01-30T07:43:15;21.70;54.80
74153;DHT22;62505;46.070;14.492;2024-01-30T07:45:42;21.70;54.80
74153;DHT22;62505;46.070;14.492;2024-01-30T07:48:09;21.80;54.90
74153;DHT22;62505;46.070;14.492;2024-01-30T07:50:38;21.80;54.90
74153;DHT22;62505;46.070;14.492;2024-01-30T07:53:05;21.70;54.90
74153;DHT22;62505;46.070;14.492;2024-01-30T07:55:32;21.80;54.90
74153;DHT22;62505;46.070;14.492;2024-01-30T07:57:59;21.80;54.90
74153;DHT22;62505;46.070;14.492;2024-01-30T08:00:26;21.70;54.90
74153;DHT22;62505;46.070;14.492;2024-01-30T08:02:54;21.80;54.90
74153;DHT22;62505;46.070;14.492;2024-01-30T08:05:22;21.70;54.80
74153;DHT22;62505;46.070;14.492;2024-01-30T08:07:51;21.70;54.90
74153;DHT22;62505;46.070;14.492;2024-01-30T08:10:18;21.80;54.90
74153;DHT22;62505;46.070;14.492;2024-01-30T08:12:46;21.80;54.80
74153;DHT22;62505;46.070;14.492;2024-01-30T08:15:13;21.70;54.80
74153;DHT22;62505;46.070;14.492;2024-01-30T08:17:40;21.80;54.90
74153;DHT22;62505;46.070;14.492;2024-01-30T08:20:07;21.80;54.90
74153;DHT22;62505;46.070;14.492;2024-01-30T08:22:34;21.70;54.80
74153;DHT22;62505;46.070;14.492;2024-01-30T08:25:02;21.80;54.80
74153;DHT22;62505;46.070;14.492;2024-01-30T08:27:29;21.80;55.00
74153;DHT22;62505;46.070;14.492;2024-01-30T08:29:56;21.70;54.80
74153;DHT22;62505;46.070;14.492;2024-01-30T08:32:23;21.70;54.80
74153;DHT22;62505;46.070;14.492;2024-01-30T08:34:50;21.70;54.80
74153;DHT22;62505;46.070;14.492;2024-01-30T08:37:17;21.70;54.80
74153;DHT22;62505;46.070;14.492;2024-01-30T08:39:44;21.80;54.90
74153;DHT22;62505;46.070;14.492;2024-01-30T08:42:13;21.70;54.80
74153;DHT22;62505;46.070;14.492;2024-01-30T08:44:40;21.70;54.80
74153;DHT22;62505;46.070;14.492;2024-01-30T08:47:07;21.70;54.80
74153;DHT22;62505;46.070;14.492;2024-01-30T08:49:34;21.80;54.90
74153;DHT22;62505;46.070;14.492;2024-01-30T08:52:01;21.70;54.80
74153;DHT22;62505;46.070;14.492;2024-01-30T08:54:28;21.80;54.80
74153;DHT22;62505;46.070;14.492;2024-01-30T08:56:55;21.80;54.80
74153;DHT22;62505;46.070;14.492;2024-01-30T08:59:25;21.80;54.80
74153;DHT22;62505;46.070;14.492;2024-01-30T09:01:52;21.70;54.80
74153;DHT22;62505;46.070;14.492;2024-01-30T09:04:20;21.80;54.90
74153;DHT22;62505;46.070;14.492;2024-01-30T09:06:48;21.80;54.80
74153;DHT22;62505;46.070;14.492;2024-01-30T09:09:15;21.70;54.80
74153;DHT22;62505;46.070;14.492;2024-01-30T09:11:43;21.70;54.70
74153;DHT22;62505;46.070;14.492;2024-01-30T09:14:10;21.70;54.80
74153;DHT22;62505;46.070;14.492;2024-01-30T09:16:38;21.80;54.80
74153;DHT22;62505;46.070;14.492;2024-01-30T09:19:05;21.70;54.80
74153;DHT22;62505;46.070;14.492;2024-01-30T09:21:32;21.70;54.80
74153;DHT22;62505;46.070;14.492;2024-01-30T09:24:02;21.70;55.40
74153;DHT22;62505;46.070;14.492;2024-01-30T09:26:29;21.70;54.80
74153;DHT22;62505;46.070;14.492;2024-01-30T09:28:56;21.70;54.80
74153;DHT22;62505;46.070;14.492;2024-01-30T09:31:23;21.70;54.80
74153;DHT22;62505;46.070;14.492;2024-01-30T09:33:52;21.80;54.80
74153;DHT22;62505;46.070;14.492;2024-01-30T09:36:19;21.80;54.90
74153;DHT22;62505;46.070;14.492;2024-01-30T09:38:47;21.80;54.80
74153;DHT22;62505;46.070;14.492;2024-01-30T09:41:14;21.70;54.70
74153;DHT22;62505;46.070;14.492;2024-01-30T09:43:46;21.70;54.70
74153;DHT22;62505;46.070;14.492;2024-01-30T09:46:15;21.70;54.80
74153;DHT22;62505;46.070;14.492;2024-01-30T09:48:43;21.70;54.80
74153;DHT22;62505;46.070;14.492;2024-01-30T09:51:14;21.70;54.70
74153;DHT22;62505;46.070;14.492;2024-01-30T09:53:42;21.80;54.80
74153;DHT22;62505;46.070;14.492;2024-01-30T09:56:10;21.70;54.70
74153;DHT22;62505;46.070;14.492;2024-01-30T09:58:39;21.70;54.70
74153;DHT22;62505;46.070;14.492;2024-01-30T10:01:06;21.70;54.70
74153;DHT22;62505;46.070;14.492;2024-01-30T10:03:33;21.80;54.80
74153;DHT22;62505;46.070;14.492;2024-01-30T10:06:01;21.80;54.80
74153;DHT22;62505;46.070;14.492;2024-01-30T10:08:30;21.70;54.80
74153;DHT22;62505;46.070;14.492;2024-01-30T10:10:56;21.70;54.80
74153;DHT22;62505;46.070;14.492;2024-01-30T10:13:23;21.70;54.80
74153;DHT22;62505;46.070;14.492;2024-01-30T10:15:50;21.70;54.80
74153;DHT22;62505;46.070;14.492;2024-01-30T10:18:18;21.70;54.80
74153;DHT22;62505;46.070;14.492;2024-01-30T10:20:45;21.70;54.70
74153;DHT22;62505;46.070;14.492;2024-01-30T10:23:12;21.70;54.70
74153;DHT22;62505;46.070;14.492;2024-01-30T10:25:41;21.70;54.70
74153;DHT22;62505;46.070;14.492;2024-01-30T10:28:08;21.70;54.70
74153;DHT22;62505;46.070;14.492;2024-01-30T10:30:36;21.80;54.80
74153;DHT22;62505;46.070;14.492;2024-01-30T10:33:03;21.70;54.70
74153;DHT22;62505;46.070;14.492;2024-01-30T10:35:30;21.70;54.70
74153;DHT22;62505;46.070;14.492;2024-01-30T10:37:57;21.70;54.70
74153;DHT22;62505;46.070;14.492;2024-01-30T10:40:28;21.80;54.80
74153;DHT22;62505;46.070;14.492;2024-01-30T10:42:56;21.80;54.80
74153;DHT22;62505;46.070;14.492;2024-01-30T10:45:26;21.70;54.70
74153;DHT22;62505;46.070;14.492;2024-01-30T10:47:58;21.70;54.70
74153;DHT22;62505;46.070;14.492;2024-01-30T10:50:26;21.80;54.80
74153;DHT22;62505;46.070;14.492;2024-01-30T10:52:54;21.80;54.80
74153;DHT22;62505;46.070;14.492;2024-01-30T10:55:22;21.70;54.70
74153;DHT22;62505;46.070;14.492;2024-01-30T10:57:49;21.70;54.70
74153;DHT22;62505;46.070;14.492;2024-01-30T11:00:18;21.70;54.70
74153;DHT22;62505;46.070;14.492;2024-01-30T11:02:49;21.70;54.70
74153;DHT22;62505;46.070;14.492;2024-01-30T11:05:23;21.70;54.70
74153;DHT22;62505;46.070;14.492;2024-01-30T11:07:51;21.70;54.70
74153;DHT22;62505;46.070;14.492;2024-01-30T11:10:19;21.80;54.70
74153;DHT22;62505;46.070;14.492;2024-01-30T11:12:46;21.70;54.70
74153;DHT22;62505;46.070;14.492;2024-01-30T11:15:14;21.70;54.70
74153;DHT22;62505;46.070;14.492;2024-01-30T11:17:44;21.70;54.70
74153;DHT22;62505;46.070;14.492;2024-01-30T11:20:12;21.70;54.70
74153;DHT22;62505;46.070;14.492;2024-01-30T11:22:42;21.70;54.70
74153;DHT22;62505;46.070;14.492;2024-01-30T11:25:14;21.70;54.70
74153;DHT22;62505;46.070;14.492;2024-01-30T11:27:42;21.70;54.70
74153;DHT22;62505;46.070;14.492;2024-01-30T11:30:09;21.70;54.80
74153;DHT22;62505;46.070;14.492;2024-01-30T11:32:36;21.70;54.80
74153;DHT22;62505;46.070;14.492;2024-01-30T11:35:05;21.70;54.80
74153;DHT22;62505;46.070;14.492;2024-01-30T11:37:37;21.70;54.70
74153;DHT22;62505;46.070;14.492;2024-01-30T11:40:05;21.70;54.80
74153;DHT22;62505;46.070;14.492;2024-01-30T11:42:32;21.70;54.80
74153;DHT22;62505;46.070;14.492;2024-01-30T11:45:01;21.80;54.80
74153;DHT22;62505;46.070;14.492;2024-01-30T11:47:29;21.70;54.80
74153;DHT22;62505;46.070;14.492;2024-01-30T11:49:56;21.70;54.80
74153;DHT22;62505;46.070;14.492;2024-01-30T11:52:25;21.80;54.80
74153;DHT22;62505;46.070;14.492;2024-01-30T11:54:52;21.80;54.90
74153;DHT22;62505;46.070;14.492;2024-01-30T11:57:19;21.70;54.80
74153;DHT22;62505;46.070;14.492;2024-01-30T11:59:46;21.70;54.80
74153;DHT22;62505;46.070;14.492;2024-01-30T12:02:16;21.70;54.80
74153;DHT22;62505;46.070;14.492;2024-01-30T12:04:43;21.70;54.80
74153;DHT22;62505;46.070;14.492;2024-01-30T12:07:11;21.70;54.80
74153;DHT22;62505;46.070;14.492;2024-01-30T12:09:39;21.70;54.90
74153;DHT22;62505;46.070;14.492;2024-01-30T12:12:07;21.80;54.90
74153;DHT22;62505;46.070;14.492;2024-01-30T12:14:38;21.70;54.80
74153;DHT22;62505;46.070;14.492;2024-01-30T12:17:05;21.80;54.90
74153;DHT22;62505;46.070;14.492;2024-01-30T12:19:34;21.70;54.90
74153;DHT22;62505;46.070;14.492;2024-01-30T12:22:01;21.80;54.90
74153;DHT22;62505;46.070;14.492;2024-01-30T12:24:28;21.80;54.90
74153;DHT22;62505;46.070;14.492;2024-01-30T12:26:59;21.70;54.90
74153;DHT22;62505;46.070;14.492;2024-01-30T12:29:26;21.70;55.50
74153;DHT22;62505;46.070;14.492;2024-01-30T12:31:53;21.80;54.90
74153;DHT22;62505;46.070;14.492;2024-01-30T12:34:21;21.70;54.80
74153;DHT22;62505;46.070;14.492;2024-01-30T12:36:48;21.70;54.90
74153;DHT22;62505;46.070;14.492;2024-01-30T12:39:15;21.70;54.80
74153;DHT22;62505;46.070;14.492;2024-01-30T12:41:42;21.70;54.80
74153;DHT22;62505;46.070;14.492;2024-01-30T12:44:13;21.70;54.80
74153;DHT22;62505;46.070;14.492;2024-01-30T12:46:40;21.70;54.90
74153;DHT22;62505;46.070;14.492;2024-01-30T12:49:07;21.70;54.90
74153;DHT22;62505;46.070;14.492;2024-01-30T12:51:34;21.70;54.80
74153;DHT22;62505;46.070;14.492;2024-01-30T12:54:05;21.70;54.80
74153;DHT22;62505;46.070;14.492;2024-01-30T12:56:32;21.80;54.90
74153;DHT22;62505;46.070;14.492;2024-01-30T12:58:59;21.80;54.90
74153;DHT22;62505;46.070;14.492;2024-01-30T13:01:28;21.80;54.90
74153;DHT22;62505;46.070;14.492;2024-01-30T13:03:55;21.70;54.80
74153;DHT22;62505;46.070;14.492;2024-01-30T13:06:24;21.70;54.80
74153;DHT22;62505;46.070;14.492;2024-01-30T13:08:51;21.80;54.90
74153;DHT22;62505;46.070;14.492;2024-01-30T13:11:18;21.80;54.80
74153;DHT22;62505;46.070;14.492;2024-01-30T13:13:45;21.80;54.90
74153;DHT22;62505;46.070;14.492;2024-01-30T13:16:12;21.80;54.90
74153;DHT22;62505;46.070;14.492;2024-01-30T13:18:40;21.70;54.80
74153;DHT22;62505;46.070;14.492;2024-01-30T13:21:07;21.70;54.90
74153;DHT22;62505;46.070;14.492;2024-01-30T13:23:34;21.70;54.80
74153;DHT22;62505;46.070;14.492;2024-01-30T13:26:01;21.70;54.90
74153;DHT22;62505;46.070;14.492;2024-01-30T13:28:28;21.80;54.80
74153;DHT22;62505;46.070;14.492;2024-01-30T13:30:55;21.70;54.80
74153;DHT22;62505;46.070;14.492;2024-01-30T13:33:22;21.70;54.90
74153;DHT22;62505;46.070;14.492;2024-01-30T13:35:50;21.80;54.90
74153;DHT22;62505;46.070;14.492;2024-01-30T13:38:17;21.70;54.90
74153;DHT22;62505;46.070;14.492;2024-01-30T13:40:44;21.80;54.90
74153;DHT22;62505;46.070;14.492;2024-01-30T13:43:12;21.80;54.90
74153;DHT22;62505;46.070;14.492;2024-01-30T13:45:39;21.70;54.90
74153;DHT22;62505;46.070;14.492;2024-01-30T13:48:07;21.70;54.90
74153;DHT22;62505;46.070;14.492;2024-01-30T13:50:34;21.70;54.90
74153;DHT22;62505;46.070;14.492;2024-01-30T13:53:03;21.70;54.90
74153;DHT22;62505;46.070;14.492;2024-01-30T13:55:30;21.70;54.90
74153;DHT22;62505;46.070;14.492;2024-01-30T13:57:57;21.70;54.90
74153;DHT22;62505;46.070;14.492;2024-01-30T14:00:25;21.70;54.90
74153;DHT22;62505;46.070;14.492;2024-01-30T14:02:52;21.70;54.80
74153;DHT22;62505;46.070;14.492;2024-01-30T14:05:20;21.80;54.90
74153;DHT22;62505;46.070;14.492;2024-01-30T14:07:48;21.80;54.90
74153;DHT22;62505;46.070;14.492;2024-01-30T14:10:17;21.80;54.90
74153;DHT22;62505;46.070;14.492;2024-01-30T14:12:44;21.70;54.90
74153;DHT22;62505;46.070;14.492;2024-01-30T14:15:14;21.70;54.90
74153;DHT22;62505;46.070;14.492;2024-01-30T14:17:43;21.70;54.90
74153;DHT22;62505;46.070;14.492;2024-01-30T14:20:11;21.70;54.90
74153;DHT22;62505;46.070;14.492;2024-01-30T14:22:38;21.70;54.90
74153;DHT22;62505;46.070;14.492;2024-01-30T14:25:06;21.70;55.00
74153;DHT22;62505;46.070;14.492;2024-01-30T14:27:35;21.70;54.90
74153;DHT22;62505;46.070;14.492;2024-01-30T14:30:03;21.70;54.90
74153;DHT22;62505;46.070;14.492;2024-01-30T14:32:30;21.70;55.00
74153;DHT22;62505;46.070;14.492;2024-01-30T14:34:57;21.70;55.00
74153;DHT22;62505;46.070;14.492;2024-01-30T14:37:24;21.70;54.90
74153;DHT22;62505;46.070;14.492;2024-01-30T14:39:50;21.70;55.00
74153;DHT22;62505;46.070;14.492;2024-01-30T14:42:17;21.70;55.00
74153;DHT22;62505;46.070;14.492;2024-01-30T14:44:45;21.70;55.00
74153;DHT22;62505;46.070;14.492;2024-01-30T14:47:12;21.70;54.90
74153;DHT22;62505;46.070;14.492;2024-01-30T14:49:40;21.70;54.90
74153;DHT22;62505;46.070;14.492;2024-01-30T14:52:07;21.70;55.00
74153;DHT22;62505;46.070;14.492;2024-01-30T14:54:36;21.70;55.00
74153;DHT22;62505;46.070;14.492;2024-01-30T14:57:04;21.70;54.90
74153;DHT22;62505;46.070;14.492;2024-01-30T14:59:31;21.70;54.90
74153;DHT22;62505;46.070;14.492;2024-01-30T15:02:01;21.70;54.90
74153;DHT22;62505;46.070;14.492;2024-01-30T15:04:28;21.70;55.00
74153;DHT22;62505;46.070;14.492;2024-01-30T15:06:55;21.70;55.00
74153;DHT22;62505;46.070;14.492;2024-01-30T15:09:22;21.70;55.00
74153;DHT22;62505;46.070;14.492;2024-01-30T15:11:49;21.70;55.00
74153;DHT22;62505;46.070;14.492;2024-01-30T15:14:16;21.70;55.00
74153;DHT22;62505;46.070;14.492;2024-01-30T15:16:43;21.70;54.90
74153;DHT22;62505;46.070;14.492;2024-01-30T15:19:12;21.70;55.00